Time;durP1;ratioP1;P1;durP2;ratioP2;P2;SDS_P1;SDS_P2;PMS_P1;PMS_P2;Temp;Humidity;BMP_temperature;BMP_pressure;BME280_temperature;BME280_humidity;BME280_pressure;Samples;Min_cycle;Max_cycle;Signal;HPM_P1;HPM_P2
2021/11/13 00:01:10;;;;;;;55.00;31.33;;;;;;;6.79;81.02;100816.94;5038206;28;20180;-69
2021/11/13 00:03:35;;;;;;;53.40;30.37;;;;;;;6.68;81.32;100809.72;5020879;28;20178;-69
2021/11/13 00:06:01;;;;;;;49.63;30.30;;;;;;;6.49;80.84;100817.84;5038125;28;20171;-68
2021/11/13 00:08:26;;;;;;;49.10;29.37;;;;;;;6.53;80.25;100817.09;5040916;28;20228;-68
2021/11/13 00:10:51;;;;;;;44.60;29.20;;;;;;;6.15;82.08;100814.31;5041918;28;20170;-68
2021/11/13 00:13:20;;;;;;;46.90;30.63;;;;;;;6.13;81.18;100813.38;5041847;28;20178;-68
2021/11/13 00:15:45;;;;;;;48.43;30.43;;;;;;;6.34;81.36;100800.19;5042563;28;20256;-68
2021/11/13 00:18:11;;;;;;;53.00;30.20;;;;;;;6.31;81.78;100798.38;5041954;28;20392;-68
2021/11/13 00:20:37;;;;;;;52.00;31.00;;;;;;;6.34;81.72;100795.88;5041968;28;20176;-68
2021/11/13 00:23:03;;;;;;;47.57;29.73;;;;;;;6.02;82.69;100798.44;5025124;28;20496;-67
2021/11/13 00:25:28;;;;;;;51.13;30.67;;;;;;;6.63;80.87;100781.97;5024302;28;20456;-68
2021/11/13 00:27:54;;;;;;;48.67;31.37;;;;;;;6.48;80.46;100795.38;5041646;28;20190;-68
2021/11/13 00:30:19;;;;;;;51.70;31.03;;;;;;;6.67;80.68;100776.91;5043277;28;20181;-68
2021/11/13 00:32:44;;;;;;;47.80;30.40;;;;;;;6.56;80.11;100787.00;5042647;28;20175;-68
2021/11/13 00:35:11;;;;;;;47.30;29.20;;;;;;;6.51;81.00;100793.75;5043377;28;20224;-69
2021/11/13 00:37:37;;;;;;;47.77;28.73;;;;;;;6.69;80.24;100775.22;5042527;28;20285;-68
2021/11/13 00:40:03;;;;;;;44.27;29.27;;;;;;;6.14;82.18;100794.44;5041514;28;20425;-69
2021/11/13 00:42:28;;;;;;;53.07;32.53;;;;;;;6.43;80.90;100786.59;5041478;28;20830;-69
2021/11/13 00:44:53;;;;;;;47.37;30.30;;;;;;;6.33;81.14;100775.13;5041756;28;20454;-67
2021/11/13 00:47:19;;;;;;;50.67;31.37;;;;;;;6.64;80.41;100776.81;5041284;28;20179;-68
2021/11/13 00:49:45;;;;;;;50.70;32.27;;;;;;;6.33;81.37;100781.19;5041157;28;20170;-68
2021/11/13 00:52:10;;;;;;;47.13;31.47;;;;;;;6.60;80.22;100774.97;5041121;28;20229;-68
2021/11/13 00:54:36;;;;;;;46.20;30.13;;;;;;;6.41;80.86;100786.56;5042425;28;20380;-68
2021/11/13 00:57:04;;;;;;;45.73;28.87;;;;;;;6.65;80.23;100785.47;5041019;28;20210;-68
2021/11/13 00:59:30;;;;;;;47.23;29.70;;;;;;;6.64;80.36;100775.94;5040907;28;20391;-68
2021/11/13 01:01:56;;;;;;;43.07;28.60;;;;;;;6.79;80.18;100780.66;5040893;28;20503;-68
2021/11/13 01:04:21;;;;;;;42.90;29.57;;;;;;;6.36;80.33;100770.00;5041187;28;20409;-68
2021/11/13 01:06:48;;;;;;;42.97;29.93;;;;;;;6.16;81.25;100793.66;5040806;28;20174;-67
2021/11/13 01:09:13;;;;;;;45.07;30.63;;;;;;;6.40;80.81;100766.72;5040662;28;20205;-69
2021/11/13 01:11:38;;;;;;;46.23;30.57;;;;;;;6.54;79.72;100780.03;5040978;28;20691;-67
2021/11/13 01:14:04;;;;;;;50.93;29.60;;;;;;;6.52;80.70;100779.09;5040594;28;20257;-69
2021/11/13 01:16:29;;;;;;;45.63;29.53;;;;;;;6.06;81.36;100794.22;5040553;28;20208;-68
2021/11/13 01:18:55;;;;;;;41.50;28.00;;;;;;;6.68;79.99;100783.81;5040764;28;20166;-68
2021/11/13 01:21:21;;;;;;;45.73;28.87;;;;;;;5.90;80.86;100795.47;5040375;28;20536;-69
2021/11/13 01:23:47;;;;;;;45.50;29.27;;;;;;;6.13;81.04;100788.41;5040495;28;20429;-68
2021/11/13 01:26:12;;;;;;;43.87;30.80;;;;;;;6.12;80.76;100801.31;5040860;28;20405;-69
2021/11/13 01:28:38;;;;;;;45.53;30.07;;;;;;;6.19;81.34;100791.16;5040547;28;20475;-69
2021/11/13 01:31:06;;;;;;;45.90;29.40;;;;;;;6.38;80.33;100789.06;5040399;28;20178;-68
2021/11/13 01:33:32;;;;;;;45.30;30.70;;;;;;;6.34;79.98;100790.69;5040747;28;20181;-68
2021/11/13 01:35:59;;;;;;;46.57;29.73;;;;;;;6.27;79.90;100790.50;5040160;28;20461;-68
2021/11/13 01:38:24;;;;;;;46.03;28.23;;;;;;;6.21;80.58;100786.00;5040207;28;20224;-67
2021/11/13 01:40:50;;;;;;;45.47;27.90;;;;;;;6.54;79.29;100773.13;5040301;28;20722;-69
2021/11/13 01:43:15;;;;;;;44.37;28.23;;;;;;;6.03;80.24;100776.88;5040118;28;20174;-68
2021/11/13 01:45:40;;;;;;;47.67;30.47;;;;;;;6.45;80.03;100772.00;5040172;28;20202;-67
2021/11/13 01:48:06;;;;;;;44.70;30.17;;;;;;;6.58;79.64;100772.34;5040492;28;20174;-67
2021/11/13 01:50:35;;;;;;;45.27;29.33;;;;;;;6.71;79.48;100762.31;5039898;28;20181;-68
2021/11/13 01:53:01;;;;;;;39.37;28.87;;;;;;;6.48;79.86;100770.38;5039491;28;20222;-68
2021/11/13 01:55:29;;;;;;;39.23;28.63;;;;;;;6.61;78.60;100766.38;5040439;28;20487;-68
2021/11/13 01:57:56;;;;;;;44.77;28.60;;;;;;;6.47;78.94;100765.13;5039751;28;20178;-67
2021/11/13 02:00:34;;;;;;;44.93;30.87;;;;;;;6.66;78.49;100754.44;5039742;28;20677;-69
2021/11/13 02:03:01;;;;;;;38.43;26.20;;;;;;;6.16;80.52;100772.09;5039654;28;20392;-68
2021/11/13 02:05:26;;;;;;;43.30;28.90;;;;;;;6.22;79.27;100772.22;5039671;28;20431;-69
2021/11/13 02:07:52;;;;;;;44.07;28.73;;;;;;;5.98;80.50;100768.13;5040094;28;20469;-68
2021/11/13 02:10:18;;;;;;;39.77;26.10;;;;;;;5.86;80.74;100767.75;5039560;28;20505;-69
2021/11/13 02:12:44;;;;;;;40.60;28.40;;;;;;;6.48;80.00;100759.13;5039335;28;20432;-68
2021/11/13 02:15:09;;;;;;;44.17;29.17;;;;;;;6.31;78.92;100766.44;5040038;28;20469;-69
2021/11/13 02:17:35;;;;;;;44.30;29.33;;;;;;;6.20;79.97;100759.25;5039485;28;20197;-69
2021/11/13 02:20:21;;;;;;;43.87;29.40;;;;;;;6.42;78.64;100758.97;5039336;28;20170;-69
2021/11/13 02:22:48;;;;;;;37.07;26.90;;;;;;;6.55;77.95;100755.88;5039172;28;20512;-69
2021/11/13 02:25:18;;;;;;;43.47;29.17;;;;;;;6.36;78.83;100762.25;5039293;28;20413;-68
2021/11/13 02:27:44;;;;;;;40.07;27.67;;;;;;;6.56;77.94;100767.97;5039334;28;20417;-68
2021/11/13 02:30:10;;;;;;;44.70;27.83;;;;;;;6.52;78.14;100771.31;5021201;28;20428;-68
2021/11/13 02:32:36;;;;;;;42.10;28.50;;;;;;;6.28;78.26;100767.25;5039378;28;20181;-67
2021/11/13 02:35:02;;;;;;;40.27;25.80;;;;;;;6.46;78.61;100766.00;5021827;28;20391;-68
2021/11/13 02:37:28;;;;;;;38.90;27.37;;;;;;;6.39;78.37;100757.19;5039184;28;20170;-69
2021/11/13 02:39:54;;;;;;;39.30;26.73;;;;;;;6.51;77.30;100759.22;5039629;28;20181;-67
2021/11/13 02:42:22;;;;;;;39.23;26.80;;;;;;;6.51;78.45;100757.50;5038812;28;20445;-68
2021/11/13 02:44:50;;;;;;;38.50;26.40;;;;;;;6.67;77.87;100760.47;5039092;28;20676;-68
2021/11/13 02:47:17;;;;;;;37.10;27.17;;;;;;;6.51;77.10;100760.09;5039203;28;20436;-68
2021/11/13 02:49:43;;;;;;;37.57;27.97;;;;;;;6.64;77.54;100757.81;5038901;28;20391;-68
2021/11/13 02:52:09;;;;;;;36.30;25.87;;;;;;;6.48;77.79;100756.53;5037460;28;20874;-68
2021/11/13 02:54:34;;;;;;;37.87;26.90;;;;;;;6.58;77.34;100762.00;5059292;28;20493;-70
2021/11/13 02:56:59;;;;;;;38.73;27.80;;;;;;;6.33;78.34;100755.31;5058919;28;20213;-68
2021/11/13 02:59:25;;;;;;;39.37;29.00;;;;;;;6.68;78.03;100751.88;5058883;28;20243;-68
2021/11/13 03:01:50;;;;;;;38.03;27.60;;;;;;;6.63;77.58;100749.19;5059011;28;20205;-69
2021/11/13 03:04:15;;;;;;;37.27;26.87;;;;;;;6.38;78.18;100753.69;5058611;28;20264;-69
2021/11/13 03:06:41;;;;;;;36.00;26.03;;;;;;;6.51;79.88;100743.69;5058728;28;20165;-69
2021/11/13 03:09:06;;;;;;;34.83;25.50;;;;;;;6.46;78.80;100746.13;5058819;28;20172;-68
2021/11/13 03:11:31;;;;;;;39.73;27.63;;;;;;;6.35;79.43;100735.50;5058381;28;20204;-68
2021/11/13 03:13:57;;;;;;;38.27;28.97;;;;;;;6.46;78.59;100746.13;5058444;28;20169;-68
2021/11/13 03:16:22;;;;;;;38.87;28.30;;;;;;;6.66;78.39;100736.28;5058725;28;20193;-68
2021/11/13 03:18:48;;;;;;;35.70;27.17;;;;;;;6.80;77.57;100733.19;5058163;28;20174;-68
2021/11/13 03:21:14;;;;;;;41.80;27.87;;;;;;;6.73;77.95;100739.91;5057301;28;20173;-68
2021/11/13 03:23:42;;;;;;;37.20;26.73;;;;;;;6.51;77.52;100734.19;5058859;28;20429;-68
2021/11/13 03:26:12;;;;;;;35.53;27.70;;;;;;;6.55;78.25;100729.97;5058178;28;20181;-69
2021/11/13 03:28:39;;;;;;;35.70;27.70;;;;;;;6.32;78.65;100732.81;5057880;28;20390;-68
2021/11/13 03:31:06;;;;;;;39.90;27.63;;;;;;;6.64;78.86;100740.53;5058325;28;20406;-68
2021/11/13 03:33:35;;;;;;;38.33;26.60;;;;;;;6.18;78.71;100750.59;5058328;28;20423;-68
2021/11/13 03:36:00;;;;;;;36.57;26.10;;;;;;;6.51;78.13;100754.03;5058652;28;20451;-68
2021/11/13 03:38:26;;;;;;;38.37;27.60;;;;;;;6.59;77.68;100739.56;5058329;28;20427;-69
2021/11/13 03:40:52;;;;;;;38.00;25.67;;;;;;;6.76;77.58;100750.34;5058072;28;20201;-69
2021/11/13 03:43:17;;;;;;;37.93;26.40;;;;;;;6.90;77.26;100738.63;5058518;28;20170;-68
2021/11/13 03:45:44;;;;;;;37.10;26.40;;;;;;;6.66;77.67;100751.84;5057722;28;20177;-68
2021/11/13 03:48:10;;;;;;;34.53;27.20;;;;;;;6.74;77.61;100746.88;5057832;28;20551;-68
2021/11/13 03:50:36;;;;;;;36.47;26.40;;;;;;;7.00;77.81;100744.91;5058294;28;20437;-69
2021/11/13 03:53:01;;;;;;;35.13;24.90;;;;;;;7.04;76.68;100749.31;5040572;28;20553;-67
2021/11/13 03:55:27;;;;;;;34.43;25.87;;;;;;;6.79;77.06;100744.38;5037921;28;20631;-69
2021/11/13 03:57:53;;;;;;;38.10;27.83;;;;;;;6.55;78.03;100741.19;5038326;28;20177;-68
2021/11/13 04:00:20;;;;;;;35.00;25.30;;;;;;;6.78;77.93;100748.69;5037730;28;20178;-68
2021/11/13 04:02:47;;;;;;;39.23;25.60;;;;;;;6.90;76.96;100745.50;5037546;28;20449;-68
2021/11/13 04:05:13;;;;;;;34.87;25.87;;;;;;;6.86;77.95;100736.81;5020941;28;20412;-67
2021/11/13 04:07:38;;;;;;;37.57;27.50;;;;;;;6.79;78.13;100740.06;5037776;28;20417;-69
2021/11/13 04:10:06;;;;;;;33.60;24.97;;;;;;;6.73;77.67;100747.69;5037623;28;20412;-68
2021/11/13 04:12:32;;;;;;;37.63;26.00;;;;;;;6.61;77.77;100740.47;5037962;28;20197;-67
2021/11/13 04:14:58;;;;;;;35.43;26.50;;;;;;;6.86;78.24;100746.28;5037516;28;20388;-67
2021/11/13 04:17:23;;;;;;;34.10;24.17;;;;;;;6.65;78.22;100739.72;5037784;28;20468;-68
2021/11/13 04:19:48;;;;;;;35.33;24.07;;;;;;;6.86;77.63;100748.88;5038167;28;20170;-67
2021/11/13 04:22:13;;;;;;;35.33;26.00;;;;;;;6.87;77.35;100738.56;5020368;28;20189;-69
2021/11/13 04:24:39;;;;;;;34.00;24.60;;;;;;;6.86;77.35;100747.16;5037713;28;20445;-68
2021/11/13 04:27:04;;;;;;;38.23;26.80;;;;;;;6.96;77.50;100748.25;5038069;28;20209;-67
2021/11/13 04:29:30;;;;;;;35.37;24.23;;;;;;;6.23;79.34;100763.63;5037362;28;20444;-67
2021/11/13 04:31:55;;;;;;;37.97;25.80;;;;;;;6.68;78.47;100744.97;5037267;28;20269;-68
2021/11/13 04:34:23;;;;;;;39.70;26.63;;;;;;;6.34;78.96;100745.81;5037993;28;20217;-68
2021/11/13 04:36:53;;;;;;;37.50;26.63;;;;;;;6.80;79.18;100749.59;5037407;28;20288;-68
2021/11/13 04:39:18;;;;;;;39.70;25.37;;;;;;;6.80;78.24;100738.38;5020764;28;20387;-68
2021/11/13 04:41:43;;;;;;;33.27;24.60;;;;;;;6.88;79.03;100745.47;5037687;28;20415;-68
2021/11/13 04:44:09;;;;;;;37.70;25.60;;;;;;;6.81;79.95;100751.34;5037321;28;20223;-68
2021/11/13 04:46:34;;;;;;;37.90;26.53;;;;;;;6.34;81.47;100751.00;5037383;28;20178;-68
2021/11/13 04:48:59;;;;;;;41.07;26.70;;;;;;;6.27;80.88;100755.13;5037836;28;20193;-68
2021/11/13 04:51:25;;;;;;;38.50;26.33;;;;;;;6.39;80.18;100760.63;5037200;28;20230;-68
2021/11/13 04:53:50;;;;;;;38.67;26.90;;;;;;;6.60;81.02;100749.06;5039048;28;20582;-69
2021/11/13 04:56:16;;;;;;;36.10;27.00;;;;;;;6.11;81.30;100763.31;5041517;28;20209;-68
2021/11/13 04:58:42;;;;;;;37.10;26.50;;;;;;;6.60;81.31;100750.81;5040974;28;20178;-68
2021/11/13 05:01:07;;;;;;;40.50;27.90;;;;;;;6.44;80.91;100759.88;5040854;28;20170;-67
2021/11/13 05:03:33;;;;;;;39.40;28.07;;;;;;;6.43;80.97;100766.78;5041248;28;20531;-67
2021/11/13 05:05:58;;;;;;;41.40;28.40;;;;;;;6.24;81.93;100763.69;5040791;28;20432;-67
2021/11/13 05:08:23;;;;;;;40.83;27.73;;;;;;;6.29;81.42;100763.81;5040756;28;20178;-68
2021/11/13 05:10:49;;;;;;;33.07;24.53;;;;;;;6.61;81.61;100761.19;5041106;28;20166;-68
2021/11/13 05:13:16;;;;;;;42.00;29.43;;;;;;;6.80;80.91;100754.78;5040579;28;20170;-68
2021/11/13 05:15:42;;;;;;;41.80;28.00;;;;;;;7.16;80.16;100751.34;5040475;28;20435;-67
2021/11/13 05:18:07;;;;;;;42.57;28.63;;;;;;;6.33;81.52;100764.75;5041007;28;20436;-67
2021/11/13 05:20:33;;;;;;;44.93;30.23;;;;;;;6.83;80.43;100756.56;5040476;28;20470;-67
2021/11/13 05:22:58;;;;;;;42.50;28.80;;;;;;;6.60;81.85;100755.97;5040283;28;20193;-68
2021/11/13 05:25:23;;;;;;;43.97;29.53;;;;;;;6.77;80.14;100764.22;5040948;28;20166;-67
2021/11/13 05:27:49;;;;;;;41.30;29.93;;;;;;;6.74;80.53;100765.88;5040399;28;20210;-69
2021/11/13 05:30:16;;;;;;;41.67;29.27;;;;;;;6.74;80.19;100768.47;5023123;28;20178;-68
2021/11/13 05:32:42;;;;;;;44.27;29.70;;;;;;;6.45;81.69;100774.59;5040704;28;20467;-68
2021/11/13 05:35:08;;;;;;;44.00;29.50;;;;;;;6.74;80.70;100765.88;5040141;28;20399;-67
2021/11/13 05:37:34;;;;;;;37.63;28.93;;;;;;;6.36;82.14;100776.09;5040196;28;20587;-67
2021/11/13 05:39:59;;;;;;;40.90;29.17;;;;;;;6.57;81.76;100764.56;5040732;28;20409;-69
2021/11/13 05:42:24;;;;;;;46.90;30.00;;;;;;;6.59;81.46;100778.44;5039919;28;20197;-68
2021/11/13 05:44:50;;;;;;;39.73;28.10;;;;;;;6.58;82.31;100771.50;5040014;28;20289;-68
2021/11/13 05:47:15;;;;;;;39.03;26.93;;;;;;;6.12;82.28;100775.41;5040383;28;20158;-67
2021/11/13 05:49:41;;;;;;;45.13;29.57;;;;;;;6.39;82.75;100780.47;5040167;28;20439;-67
2021/11/13 05:52:06;;;;;;;40.20;29.33;;;;;;;6.18;82.98;100772.97;5039978;28;20225;-67
2021/11/13 05:54:32;;;;;;;41.73;29.07;;;;;;;6.23;83.47;100768.81;5040440;28;20166;-68
2021/11/13 05:56:57;;;;;;;36.53;26.90;;;;;;;6.60;82.49;100767.22;5039699;28;20202;-67
2021/11/13 05:59:22;;;;;;;43.90;29.70;;;;;;;6.58;82.04;100776.66;5022610;28;20202;-70
2021/11/13 06:01:48;;;;;;;39.60;27.30;;;;;;;6.43;83.14;100778.81;5040303;28;20582;-69
2021/11/13 06:04:13;;;;;;;40.63;27.63;;;;;;;6.24;82.94;100773.16;5039215;28;20568;-67
2021/11/13 06:06:38;;;;;;;44.20;28.80;;;;;;;6.28;82.35;100782.78;5039127;28;20532;-68
2021/11/13 06:09:04;;;;;;;42.20;29.40;;;;;;;6.31;83.76;100775.09;5040132;28;20225;-68
2021/11/13 06:11:29;;;;;;;43.50;30.37;;;;;;;6.38;83.59;100773.53;5022379;28;20251;-68
2021/11/13 06:13:55;;;;;;;43.70;29.93;;;;;;;6.22;83.41;100772.22;5039406;28;20260;-68
2021/11/13 06:16:20;;;;;;;44.10;29.23;;;;;;;6.52;83.05;100767.03;5039895;28;20198;-68
2021/11/13 06:18:45;;;;;;;41.20;28.93;;;;;;;6.54;83.16;100775.69;5039426;28;20183;-69
2021/11/13 06:21:11;;;;;;;44.27;29.70;;;;;;;6.40;83.19;100793.47;5039396;28;20178;-68
2021/11/13 06:23:37;;;;;;;47.10;30.87;;;;;;;6.45;82.95;100770.28;5039808;28;20174;-67
2021/11/13 06:26:04;;;;;;;42.37;31.67;;;;;;;6.24;83.58;100780.94;5039264;28;20555;-68
2021/11/13 06:28:30;;;;;;;40.90;28.40;;;;;;;6.32;84.26;100768.19;5039496;28;20425;-67
2021/11/13 06:30:55;;;;;;;46.90;30.50;;;;;;;6.43;83.38;100782.31;5039609;28;20388;-66
2021/11/13 06:33:21;;;;;;;43.63;30.43;;;;;;;6.20;83.67;100782.56;5039395;28;20170;-67
2021/11/13 06:35:46;;;;;;;40.37;27.70;;;;;;;6.38;83.30;100792.53;5038952;28;20528;-68
2021/11/13 06:38:11;;;;;;;42.77;31.30;;;;;;;6.37;83.51;100797.66;5039695;28;20174;-68
2021/11/13 06:40:37;;;;;;;48.00;31.33;;;;;;;6.53;83.18;100796.38;5039076;28;20457;-67
2021/11/13 06:43:02;;;;;;;42.50;28.27;;;;;;;6.55;82.60;100800.78;5038937;28;20189;-67
2021/11/13 06:45:28;;;;;;;44.50;28.77;;;;;;;6.41;83.68;100804.69;5039325;28;20178;-68
2021/11/13 06:47:53;;;;;;;44.23;30.87;;;;;;;6.22;83.68;100808.47;5038962;28;20220;-67
2021/11/13 06:50:19;;;;;;;38.20;28.60;;;;;;;6.40;83.33;100810.72;5038980;28;20167;-67
2021/11/13 06:52:44;;;;;;;48.60;31.80;;;;;;;6.23;82.86;100810.25;5047206;28;20648;-67
2021/11/13 06:55:11;;;;;;;41.20;27.90;;;;;;;6.09;85.36;100819.31;5058859;28;20231;-67
2021/11/13 06:57:36;;;;;;;39.73;28.20;;;;;;;6.57;83.04;100818.94;5059750;28;20223;-67
2021/11/13 07:00:05;;;;;;;40.63;29.90;;;;;;;6.27;83.34;100819.84;5058890;28;20431;-67
2021/11/13 07:02:30;;;;;;;38.73;28.70;;;;;;;6.63;82.84;100819.13;5058578;28;20169;-67
2021/11/13 07:04:55;;;;;;;42.20;29.23;;;;;;;6.64;82.18;100823.44;5059267;28;20417;-68
2021/11/13 07:07:21;;;;;;;44.10;30.77;;;;;;;6.64;82.59;100826.03;5066361;28;20177;-67
2021/11/13 07:09:46;;;;;;;41.30;28.73;;;;;;;6.78;81.91;100825.53;5066162;28;20565;-67
2021/11/13 07:12:12;;;;;;;40.97;28.00;;;;;;;6.51;83.29;100832.59;5059449;28;20170;-67
2021/11/13 07:14:37;;;;;;;41.00;28.60;;;;;;;6.48;83.38;100826.44;5059290;28;20253;-68
2021/11/13 07:17:03;;;;;;;40.27;28.00;;;;;;;6.49;82.64;100829.09;5058777;28;20221;-68
2021/11/13 07:19:28;;;;;;;38.47;27.00;;;;;;;6.27;83.03;100829.34;5058969;28;20180;-67
2021/11/13 07:21:53;;;;;;;38.70;27.07;;;;;;;6.62;81.95;100832.91;5058760;28;20268;-66
2021/11/13 07:24:19;;;;;;;46.20;29.67;;;;;;;6.51;83.10;100839.50;5058859;28;20182;-68
2021/11/13 07:26:51;;;;;;;40.70;27.60;;;;;;;6.82;81.24;100840.31;5059260;28;20174;-67
2021/11/13 07:29:17;;;;;;;38.43;29.27;;;;;;;6.76;81.27;100846.22;5058260;28;20178;-66
2021/11/13 07:31:42;;;;;;;44.80;28.67;;;;;;;6.61;83.13;100846.69;5058064;28;20409;-67
2021/11/13 07:34:07;;;;;;;35.57;26.90;;;;;;;6.69;82.42;100860.72;5058471;28;20177;-67
2021/11/13 07:36:33;;;;;;;37.53;27.53;;;;;;;6.62;81.87;100856.22;5057985;28;20217;-68
2021/11/13 07:38:58;;;;;;;40.93;28.70;;;;;;;6.39;82.46;100868.53;5057393;28;20173;-68
2021/11/13 07:41:24;;;;;;;36.20;27.70;;;;;;;6.68;82.00;100871.91;5058374;28;20466;-68
2021/11/13 07:43:50;;;;;;;36.97;27.13;;;;;;;6.68;82.43;100871.03;5058018;28;20260;-68
2021/11/13 07:46:16;;;;;;;36.00;26.00;;;;;;;6.88;80.92;100880.22;5058002;28;20511;-67
2021/11/13 07:48:41;;;;;;;38.23;28.50;;;;;;;6.63;81.96;100870.03;5058404;28;20503;-67
2021/11/13 07:51:08;;;;;;;36.00;25.50;;;;;;;6.62;81.69;100886.44;5056442;28;20582;-68
2021/11/13 07:53:33;;;;;;;37.53;28.90;;;;;;;6.78;82.21;100883.44;5037697;28;20198;-68
2021/11/13 07:55:59;;;;;;;38.10;27.30;;;;;;;6.80;81.06;100880.88;5038098;28;20454;-67
2021/11/13 07:58:24;;;;;;;36.70;26.43;;;;;;;6.95;80.82;100877.81;5037976;28;20174;-69
2021/11/13 08:00:50;;;;;;;35.83;25.50;;;;;;;6.78;81.16;100880.84;5037660;28;20209;-67
2021/11/13 08:03:16;;;;;;;37.77;26.00;;;;;;;6.97;81.12;100884.81;5038141;28;20170;-68
2021/11/13 08:05:41;;;;;;;34.70;26.00;;;;;;;6.96;80.19;100883.03;5037829;28;20174;-68
2021/11/13 08:08:07;;;;;;;35.40;25.43;;;;;;;6.91;81.13;100888.09;5037642;28;20427;-68
2021/11/13 08:10:36;;;;;;;33.17;24.90;;;;;;;7.18;80.28;100889.66;5020927;28;20178;-67
2021/11/13 08:13:03;;;;;;;35.23;25.90;;;;;;;7.03;81.27;100889.25;5020818;28;20265;-68
2021/11/13 08:15:28;;;;;;;35.43;26.13;;;;;;;6.83;81.84;100899.09;5037598;28;20460;-68
2021/11/13 08:17:53;;;;;;;27.07;20.07;;;;;;;9.81;81.86;100886.34;5038033;28;20400;-59
2021/11/13 08:20:19;;;;;;;25.00;19.87;;;;;;;11.41;72.44;100872.63;5037414;28;20197;-60
2021/11/13 08:22:44;;;;;;;28.93;23.30;;;;;;;10.68;65.72;100885.81;5037346;28;20462;-70
2021/11/13 08:25:11;;;;;;;26.53;21.57;;;;;;;7.57;77.03;100890.63;5035501;28;20185;-70
2021/11/13 08:27:37;;;;;;;29.77;23.10;;;;;;;7.12;80.03;100902.47;5037198;28;20167;-72
2021/11/13 08:30:08;;;;;;;30.67;24.20;;;;;;;6.99;81.50;100902.97;5023950;28;20431;-71
2021/11/13 08:32:34;;;;;;;34.20;24.13;;;;;;;6.91;81.90;100900.16;5041646;28;20395;-73
2021/11/13 08:34:59;;;;;;;34.30;26.37;;;;;;;6.99;81.97;100903.84;5041489;28;20491;-71
2021/11/13 08:37:25;;;;;;;32.30;24.60;;;;;;;6.73;83.48;100900.56;5041049;28;20442;-72
2021/11/13 08:39:50;;;;;;;37.77;27.70;;;;;;;7.08;82.47;100903.22;5041498;28;20163;-71
2021/11/13 08:42:15;;;;;;;36.23;26.90;;;;;;;6.81;82.85;100905.97;5040740;28;20190;-71
2021/11/13 08:44:43;;;;;;;34.70;26.30;;;;;;;6.85;82.62;100900.03;5040992;28;20204;-71
2021/11/13 08:47:10;;;;;;;35.03;26.83;;;;;;;6.77;83.58;100901.53;5041429;28;20166;-71
2021/11/13 08:49:37;;;;;;;34.80;25.57;;;;;;;7.02;83.03;100898.75;5041076;28;20441;-73
2021/11/13 08:52:04;;;;;;;38.80;27.23;;;;;;;6.85;82.80;100897.44;5040599;28;20475;-72
2021/11/13 08:54:29;;;;;;;37.40;27.20;;;;;;;7.00;82.25;100903.00;5041319;28;20410;-71
2021/11/13 08:56:54;;;;;;;38.33;27.47;;;;;;;6.65;83.87;100892.56;5040778;28;20527;-72
2021/11/13 08:59:20;;;;;;;36.87;25.80;;;;;;;6.82;83.58;100898.22;5040688;28;20174;-70
2021/11/13 09:01:45;;;;;;;33.03;25.53;;;;;;;7.07;82.50;100897.16;5041359;28;20547;-71
2021/11/13 09:04:12;;;;;;;33.47;25.30;;;;;;;6.76;83.38;100894.59;5041673;28;20180;-71
2021/11/13 09:06:38;;;;;;;37.43;26.07;;;;;;;6.85;82.76;100894.84;5041276;28;20170;-72
2021/11/13 09:09:05;;;;;;;37.33;26.17;;;;;;;7.13;81.69;100891.28;5042219;28;20470;-74
2021/11/13 09:11:32;;;;;;;38.50;27.27;;;;;;;6.77;83.78;100898.94;5023330;28;20440;-71
2021/11/13 09:13:59;;;;;;;33.17;25.23;;;;;;;6.83;83.46;100897.41;5040702;28;20423;-70
2021/11/13 09:16:26;;;;;;;39.77;27.23;;;;;;;7.04;83.13;100897.06;5040882;28;20427;-72
2021/11/13 09:18:51;;;;;;;34.83;24.90;;;;;;;7.24;82.19;100917.47;5040462;28;20391;-73
2021/11/13 09:21:17;;;;;;;34.43;26.40;;;;;;;7.16;82.26;100906.03;5023043;28;20871;-72
2021/11/13 09:23:42;;;;;;;32.83;23.70;;;;;;;6.76;83.87;100920.50;5041071;28;20171;-72
2021/11/13 09:26:10;;;;;;;36.03;24.63;;;;;;;7.11;82.70;100921.44;5040505;28;20536;-72
2021/11/13 09:28:36;;;;;;;31.87;25.07;;;;;;;6.84;83.93;100924.19;5023705;28;20179;-71
2021/11/13 09:31:02;;;;;;;32.87;25.23;;;;;;;6.92;83.58;100927.84;5023492;28;20417;-71
2021/11/13 09:33:28;;;;;;;33.60;25.20;;;;;;;6.86;83.98;100938.03;5022914;28;20827;-75
2021/11/13 09:35:54;;;;;;;34.20;25.83;;;;;;;7.01;83.43;100943.66;5040036;28;20202;-75
2021/11/13 09:38:27;;;;;;;33.10;24.77;;;;;;;6.94;84.19;100936.56;5023688;28;20390;-76
2021/11/13 09:40:54;;;;;;;34.43;25.93;;;;;;;6.57;85.61;100940.69;5039758;28;20446;-73
2021/11/13 09:43:21;;;;;;;37.57;24.80;;;;;;;7.07;83.58;100942.94;5040156;28;20392;-72
2021/11/13 09:45:47;;;;;;;31.33;24.33;;;;;;;7.05;83.60;100937.72;5039966;28;20508;-72
2021/11/13 09:48:13;;;;;;;33.83;25.70;;;;;;;7.07;83.97;100946.41;5039993;28;20505;-72
2021/11/13 09:50:40;;;;;;;32.80;25.50;;;;;;;7.45;82.55;100944.81;5023063;28;20170;-73
2021/11/13 09:53:06;;;;;;;34.60;26.20;;;;;;;7.26;82.84;100949.50;5039712;28;20218;-72
2021/11/13 09:55:32;;;;;;;33.70;25.50;;;;;;;6.91;83.54;100946.81;5039901;28;20502;-71
2021/11/13 09:57:57;;;;;;;34.40;24.50;;;;;;;7.48;82.42;100942.28;5040322;28;20787;-72
2021/11/13 10:00:28;;;;;;;35.07;25.90;;;;;;;7.55;82.03;100951.97;5039848;28;20170;-72
2021/11/13 10:02:54;;;;;;;32.70;24.33;;;;;;;7.59;81.65;100946.91;5039519;28;20452;-71
2021/11/13 10:05:19;;;;;;;32.97;25.20;;;;;;;7.28;83.03;100955.63;5039936;28;20383;-71
2021/11/13 10:07:45;;;;;;;31.77;24.43;;;;;;;7.64;81.66;100951.34;5039617;28;20593;-72
2021/11/13 10:10:14;;;;;;;33.17;25.07;;;;;;;7.78;81.01;100960.34;5039696;28;20199;-72
2021/11/13 10:12:42;;;;;;;29.30;23.10;;;;;;;8.18;79.53;100952.63;5039815;28;20421;-72
2021/11/13 10:15:43;;;;;;;33.20;23.40;;;;;;;8.01;80.08;100953.09;5039530;28;20872;-72
2021/11/13 10:18:14;;;;;;;29.67;22.37;;;;;;;7.96;80.27;100953.84;4979333;28;20687;-71
2021/11/13 10:20:47;;;;;;;28.20;22.43;;;;;;;8.22;79.62;100949.25;5029202;28;20398;-70
2021/11/13 10:23:32;;;;;;;27.90;21.30;;;;;;;7.85;79.96;100958.78;5039360;28;20422;-72
2021/11/13 10:26:23;;;;;;;29.10;23.33;;;;;;;8.23;79.79;100949.28;5039304;28;20414;-71
2021/11/13 10:29:00;;;;;;;26.53;21.17;;;;;;;8.12;80.00;100957.66;5039314;28;20503;-70
2021/11/13 10:31:40;;;;;;;25.83;20.97;;;;;;;7.84;81.42;100963.06;5022259;28;20496;-70
2021/11/13 10:34:07;;;;;;;26.77;20.90;;;;;;;7.91;81.47;100956.31;5038989;28;20429;-71
2021/11/13 10:36:39;;;;;;;23.00;19.10;;;;;;;7.67;82.53;100954.91;5039097;28;20464;-73
2021/11/13 10:39:12;;;;;;;27.33;20.40;;;;;;;8.28;80.43;100952.00;5038916;28;20816;-74
2021/11/13 10:41:46;;;;;;;24.80;20.80;;;;;;;8.20;80.55;100951.81;5038597;28;20433;-73
2021/11/13 10:44:12;;;;;;;27.67;21.50;;;;;;;8.33;80.27;100947.75;5038813;28;20418;-71
2021/11/13 10:46:42;;;;;;;27.83;21.27;;;;;;;8.25;81.11;100946.72;5038753;28;20384;-71
2021/11/13 10:49:07;;;;;;;26.67;21.60;;;;;;;8.57;79.03;100947.44;5021672;28;20383;-72
2021/11/13 10:51:34;;;;;;;28.43;21.03;;;;;;;8.16;79.63;100941.31;5038153;28;20826;-71
2021/11/13 10:54:14;;;;;;;24.67;20.90;;;;;;;8.37;80.49;100948.72;5021692;28;20421;-72
2021/11/13 10:56:54;;;;;;;26.60;20.37;;;;;;;8.53;79.90;100952.56;5038747;28;20438;-71
2021/11/13 10:59:25;;;;;;;26.90;20.37;;;;;;;8.06;81.10;100945.41;5038679;28;20387;-72
2021/11/13 11:01:51;;;;;;;29.03;22.57;;;;;;;8.58;79.30;100948.34;5038513;28;20437;-73
2021/11/13 11:04:22;;;;;;;27.23;20.23;;;;;;;8.38;80.59;100947.88;5038532;28;20709;-72
2021/11/13 11:06:50;;;;;;;24.40;19.93;;;;;;;8.48;80.40;100948.97;5038346;28;20431;-72
2021/11/13 11:09:19;;;;;;;29.63;20.80;;;;;;;8.40;80.74;100951.38;5038867;28;20409;-70
2021/11/13 11:11:46;;;;;;;26.17;21.03;;;;;;;8.47;79.57;100942.00;5038473;28;20383;-75
2021/11/13 11:14:15;;;;;;;28.70;21.77;;;;;;;8.56;80.33;100947.41;5004743;28;20421;-73